Time;durP1;ratioP1;P1;durP2;ratioP2;P2;SDS_P1;SDS_P2;PMS_P1;PMS_P2;Temp;Humidity;BMP_temperature;BMP_pressure;BME280_temperature;BME280_humidity;BME280_pressure;Samples;Min_cycle;Max_cycle;Signal;HPM_P1;HPM_P2
2023/04/23 00:01:27;;;;;;;35.20;22.90;;;8.20;99.90;;;;;;4986191;28;20069;-63
2023/04/23 00:07:15;;;;;;;38.35;22.75;;;8.00;99.90;;;;;;4986257;28;20146;-64
2023/04/23 00:10:32;;;;;;;36.85;22.30;;;8.10;99.90;;;;;;4986471;28;20065;-64
2023/04/23 00:13:12;;;;;;;45.75;25.05;;;8.10;99.90;;;;;;4984536;28;20062;-65
2023/04/23 00:16:31;;;;;;;41.58;25.15;;;8.10;99.90;;;;;;4985495;28;20422;-63
2023/04/23 00:19:11;;;;;;;42.47;24.58;;;8.00;99.90;;;;;;4973664;28;20376;-64
2023/04/23 00:22:20;;;;;;;44.17;25.15;;;8.10;99.90;;;;;;4966821;28;20083;-64
2023/04/23 00:25:06;;;;;;;47.65;27.45;;;8.00;99.90;;;;;;4966999;28;20065;-64
2023/04/23 00:27:46;;;;;;;50.05;27.92;;;8.00;99.90;;;;;;4971297;28;20175;-64
2023/04/23 00:30:41;;;;;;;54.55;29.98;;;8.10;99.90;;;;;;4970393;28;20070;-65
2023/04/23 00:33:25;;;;;;;52.50;29.52;;;8.10;99.90;;;;;;4966515;28;20319;-63
2023/04/23 00:36:10;;;;;;;55.78;30.70;;;8.20;99.90;;;;;;4966316;28;20125;-64
2023/04/23 00:38:50;;;;;;;58.53;31.55;;;8.20;99.90;;;;;;4979671;28;20129;-65
2023/04/23 00:41:35;;;;;;;61.10;32.17;;;8.10;99.90;;;;;;4985743;28;20414;-64
2023/04/23 00:44:15;;;;;;;63.97;33.85;;;8.10;99.90;;;;;;4981820;28;20601;-64
2023/04/23 00:47:00;;;;;;;57.50;31.60;;;8.10;99.90;;;;;;4966136;28;20539;-65
2023/04/23 00:49:41;;;;;;;61.88;33.75;;;8.10;99.90;;;;;;4947154;29;20142;-64
2023/04/23 00:52:28;;;;;;;63.33;35.58;;;8.10;99.90;;;;;;4947289;29;20062;-65
2023/04/23 00:55:08;;;;;;;66.40;34.90;;;8.20;99.90;;;;;;4935436;29;20140;-64
2023/04/23 00:57:54;;;;;;;63.15;33.08;;;8.20;99.90;;;;;;4958795;28;20360;-63
2023/04/23 01:00:43;;;;;;;63.80;35.53;;;8.20;99.90;;;;;;4972154;28;20141;-63
2023/04/23 01:03:31;;;;;;;66.47;35.90;;;8.20;99.90;;;;;;4971945;28;20382;-64
2023/04/23 01:06:10;;;;;;;64.90;36.00;;;8.10;99.90;;;;;;4972781;28;20047;-64
2023/04/23 01:08:56;;;;;;;66.07;32.85;;;8.20;99.90;;;;;;4986309;28;20108;-64
2023/04/23 01:11:42;;;;;;;67.80;34.75;;;8.20;99.90;;;;;;4992248;28;20089;-64
2023/04/23 01:14:27;;;;;;;64.82;34.97;;;8.20;99.90;;;;;;4989300;28;20621;-64
2023/04/23 01:17:11;;;;;;;70.25;36.45;;;8.20;99.90;;;;;;4972997;28;20089;-64
2023/04/23 01:19:57;;;;;;;65.32;35.15;;;8.10;99.90;;;;;;4974980;28;20058;-64
2023/04/23 01:22:44;;;;;;;67.38;34.40;;;8.10;99.90;;;;;;4972065;28;20070;-64
2023/04/23 01:25:24;;;;;;;65.93;35.53;;;8.10;99.90;;;;;;4973186;28;20093;-64
2023/04/23 01:28:11;;;;;;;70.28;36.00;;;8.10;99.90;;;;;;4988190;28;20065;-64
2023/04/23 01:30:51;;;;;;;68.10;35.63;;;8.10;99.90;;;;;;4999698;28;20135;-64
2023/04/23 01:33:40;;;;;;;67.53;35.75;;;8.10;99.90;;;;;;4992006;28;20168;-64
2023/04/23 01:36:19;;;;;;;70.65;36.63;;;8.20;99.90;;;;;;4991958;28;20129;-65
2023/04/23 01:39:06;;;;;;;66.20;35.38;;;8.10;99.90;;;;;;5006710;28;20445;-65
2023/04/23 01:41:46;;;;;;;68.07;34.80;;;8.20;99.90;;;;;;5011618;28;20547;-64
2023/04/23 01:44:33;;;;;;;65.25;35.13;;;8.10;99.90;;;;;;5011125;28;20060;-64
2023/04/23 01:47:12;;;;;;;71.65;39.15;;;8.00;99.90;;;;;;4972550;28;20092;-65
2023/04/23 01:49:59;;;;;;;65.60;34.72;;;7.90;99.90;;;;;;5011416;28;20409;-64
2023/04/23 01:52:40;;;;;;;68.03;37.53;;;8.00;99.90;;;;;;5011467;28;20112;-65
2023/04/23 01:55:58;;;;;;;66.88;35.83;;;7.90;99.90;;;;;;5011694;28;20108;-64
2023/04/23 01:58:38;;;;;;;65.47;35.45;;;7.90;99.90;;;;;;5000170;28;20152;-64
2023/04/23 02:01:25;;;;;;;67.97;35.03;;;7.90;99.90;;;;;;4991390;28;20116;-65
2023/04/23 02:04:04;;;;;;;70.70;35.92;;;7.80;99.90;;;;;;4991423;28;20125;-66
2023/04/23 02:06:51;;;;;;;64.43;36.25;;;7.80;99.90;;;;;;4989382;28;20100;-64
2023/04/23 02:09:30;;;;;;;70.50;36.13;;;7.80;99.90;;;;;;5006137;28;20655;-64
2023/04/23 02:12:17;;;;;;;69.55;34.70;;;7.70;99.90;;;;;;5008048;28;20065;-64
2023/04/23 02:14:56;;;;;;;68.40;35.38;;;7.70;99.90;;;;;;5008540;28;20084;-64
2023/04/23 02:17:43;;;;;;;67.80;36.75;;;7.80;99.90;;;;;;4977911;28;20084;-63
2023/04/23 02:20:22;;;;;;;67.05;35.78;;;7.80;99.90;;;;;;5006941;28;20057;-65
2023/04/23 02:23:41;;;;;;;67.63;36.55;;;7.60;99.90;;;;;;5007635;28;20504;-64
2023/04/23 02:26:21;;;;;;;70.32;37.08;;;7.70;99.90;;;;;;5008036;28;20537;-64
2023/04/23 02:29:40;;;;;;;71.40;37.08;;;7.70;99.90;;;;;;4992876;28;20137;-64
2023/04/23 02:32:19;;;;;;;68.55;37.10;;;7.60;99.90;;;;;;4988094;28;20151;-63
2023/04/23 02:35:37;;;;;;;73.60;37.63;;;7.70;99.90;;;;;;4988098;28;20537;-64
2023/04/23 02:38:17;;;;;;;64.63;34.03;;;7.60;99.90;;;;;;4978836;28;20461;-64
2023/04/23 02:41:14;;;;;;;72.68;38.80;;;7.50;99.90;;;;;;4990034;28;20496;-64
2023/04/23 02:44:01;;;;;;;72.10;37.30;;;7.50;99.90;;;;;;5007339;28;20061;-64
2023/04/23 02:46:40;;;;;;;72.47;39.33;;;7.50;99.90;;;;;;4996646;28;20125;-65
2023/04/23 02:49:27;;;;;;;73.97;37.40;;;7.50;99.90;;;;;;5005162;28;20053;-63
2023/04/23 02:52:06;;;;;;;70.95;37.25;;;7.50;99.90;;;;;;5007997;28;20084;-64
2023/04/23 02:54:53;;;;;;;70.63;36.63;;;7.60;99.90;;;;;;5008154;28;20485;-64
2023/04/23 02:57:32;;;;;;;72.10;38.63;;;7.50;99.90;;;;;;5005277;28;20496;-63
2023/04/23 03:00:20;;;;;;;75.25;39.33;;;7.60;99.90;;;;;;4987466;28;20180;-64
2023/04/23 03:02:59;;;;;;;71.70;37.60;;;7.60;99.90;;;;;;4987184;28;20130;-64
2023/04/23 03:05:46;;;;;;;80.82;40.00;;;7.60;99.90;;;;;;4987876;28;20073;-65
2023/04/23 03:08:26;;;;;;;71.28;35.42;;;7.60;99.90;;;;;;4996434;28;20423;-63
2023/04/23 03:11:13;;;;;;;90.32;37.60;;;7.50;99.90;;;;;;5007726;28;20111;-64
2023/04/23 03:13:52;;;;;;;102.05;38.53;;;7.40;99.90;;;;;;4989558;28;20050;-64
2023/04/23 03:16:40;;;;;;;104.97;35.50;;;7.40;99.90;;;;;;4999058;28;20489;-64
2023/04/23 03:19:19;;;;;;;88.25;34.05;;;7.40;99.90;;;;;;5001664;28;20106;-62
2023/04/23 03:22:06;;;;;;;104.63;35.88;;;7.40;99.90;;;;;;5007036;28;20053;-64
2023/04/23 03:24:45;;;;;;;88.18;33.95;;;7.40;99.90;;;;;;5006994;28;20085;-63
2023/04/23 03:28:04;;;;;;;111.90;38.47;;;7.40;99.90;;;;;;5005129;28;20391;-64
2023/04/23 03:30:43;;;;;;;85.75;37.70;;;7.40;99.90;;;;;;4987448;28;20065;-64
2023/04/23 03:33:30;;;;;;;75.78;35.95;;;7.30;99.90;;;;;;4949995;28;20097;-65
2023/04/23 03:36:09;;;;;;;76.82;35.58;;;7.40;99.90;;;;;;4967963;28;20105;-64
2023/04/23 03:39:27;;;;;;;76.55;34.15;;;7.40;99.90;;;;;;4993207;28;20069;-64
2023/04/23 03:42:07;;;;;;;101.72;36.92;;;7.40;99.90;;;;;;5006908;28;20058;-63
2023/04/23 03:44:54;;;;;;;84.95;38.75;;;7.20;99.90;;;;;;5006753;28;20072;-64
2023/04/23 03:47:33;;;;;;;67.32;35.85;;;7.30;99.90;;;;;;4994919;28;20541;-63
2023/04/23 03:50:20;;;;;;;76.47;34.85;;;7.40;99.90;;;;;;5006227;28;20305;-65
2023/04/23 03:52:59;;;;;;;71.85;35.90;;;7.30;99.90;;;;;;5005987;28;20386;-64
2023/04/23 03:55:46;;;;;;;65.20;32.85;;;7.40;99.90;;;;;;5006897;28;20069;-64
2023/04/23 03:58:25;;;;;;;62.17;31.75;;;7.40;99.90;;;;;;4997382;28;20054;-65
2023/04/23 04:01:12;;;;;;;66.03;33.40;;;7.40;99.90;;;;;;4986766;28;20077;-65
2023/04/23 04:03:51;;;;;;;67.13;35.67;;;7.50;99.90;;;;;;4986380;28;20329;-65
2023/04/23 04:06:38;;;;;;;65.22;32.38;;;7.50;99.90;;;;;;4986604;28;20157;-65
2023/04/23 04:09:17;;;;;;;68.63;36.20;;;7.50;99.90;;;;;;5001857;28;20088;-65
2023/04/23 04:12:04;;;;;;;66.65;33.60;;;7.50;99.90;;;;;;5006171;28;20529;-65
2023/04/23 04:14:44;;;;;;;74.03;38.60;;;7.50;99.90;;;;;;4988720;28;20061;-65
2023/04/23 04:17:31;;;;;;;70.55;35.78;;;7.40;99.90;;;;;;4997413;28;20069;-65
2023/04/23 04:20:11;;;;;;;69.90;35.13;;;7.60;99.90;;;;;;5004790;28;20474;-64
2023/04/23 04:22:59;;;;;;;68.57;35.15;;;7.60;99.90;;;;;;5005643;28;20061;-64
2023/04/23 04:25:38;;;;;;;77.18;37.55;;;7.70;99.90;;;;;;5006014;28;20136;-65
2023/04/23 04:28:25;;;;;;;76.30;38.22;;;7.70;99.90;;;;;;4997086;28;20057;-65
2023/04/23 04:31:05;;;;;;;76.18;37.47;;;7.60;99.90;;;;;;4985900;28;20186;-65
2023/04/23 04:33:51;;;;;;;77.43;39.08;;;7.70;99.90;;;;;;4985318;28;20454;-64
2023/04/23 04:36:30;;;;;;;79.72;39.05;;;7.80;99.90;;;;;;4986124;28;20461;-63
2023/04/23 04:39:17;;;;;;;86.78;42.22;;;7.70;99.90;;;;;;5001002;28;20080;-65
2023/04/23 04:41:58;;;;;;;74.95;38.67;;;7.80;99.90;;;;;;5005942;28;20149;-65
2023/04/23 04:44:45;;;;;;;73.35;39.90;;;7.90;99.90;;;;;;5005515;28;20064;-63
2023/04/23 04:47:28;;;;;;;73.72;38.60;;;7.90;99.90;;;;;;4984221;28;20300;-65
2023/04/23 04:50:15;;;;;;;69.28;38.35;;;7.90;99.90;;;;;;4952053;28;20113;-63
2023/04/23 04:52:55;;;;;;;69.80;35.53;;;7.80;99.90;;;;;;4965883;28;20130;-64
2023/04/23 04:55:42;;;;;;;71.90;38.58;;;8.00;99.90;;;;;;4948910;28;20066;-65
2023/04/23 04:58:21;;;;;;;72.05;37.80;;;8.10;99.90;;;;;;4981365;28;20065;-65
2023/04/23 05:01:41;;;;;;;73.95;35.85;;;7.90;99.90;;;;;;5005382;28;20060;-64
2023/04/23 05:04:21;;;;;;;67.90;34.40;;;8.00;99.90;;;;;;4985730;28;20060;-63
2023/04/23 05:07:08;;;;;;;68.78;35.20;;;8.10;99.90;;;;;;4985986;28;20077;-64
2023/04/23 05:09:47;;;;;;;73.88;35.40;;;8.00;99.90;;;;;;4986553;28;20108;-63
2023/04/23 05:12:34;;;;;;;67.45;36.95;;;8.10;99.90;;;;;;4985555;28;20050;-64
2023/04/23 05:15:17;;;;;;;75.57;35.85;;;8.00;99.90;;;;;;4986015;28;20093;-64
2023/04/23 05:18:05;;;;;;;70.15;37.80;;;8.10;99.90;;;;;;4989495;28;20053;-63
2023/04/23 05:20:44;;;;;;;70.35;37.17;;;8.20;99.90;;;;;;5003969;28;20452;-64
2023/04/23 05:23:32;;;;;;;69.18;35.58;;;8.10;99.90;;;;;;4986927;28;20116;-65
2023/04/23 05:26:11;;;;;;;69.60;34.45;;;8.40;99.90;;;;;;5005454;28;20323;-65
2023/04/23 05:28:58;;;;;;;66.93;33.78;;;8.50;99.90;;;;;;4992661;28;20112;-65
2023/04/23 05:31:37;;;;;;;67.78;34.72;;;8.40;99.90;;;;;;4985813;28;20089;-64
2023/04/23 05:34:24;;;;;;;66.57;36.83;;;8.60;99.90;;;;;;4984564;28;20401;-63
2023/04/23 05:37:08;;;;;;;66.72;35.20;;;8.70;99.90;;;;;;4985562;28;20372;-65
2023/04/23 05:39:54;;;;;;;66.10;34.17;;;8.80;99.90;;;;;;5004674;28;20260;-65
2023/04/23 05:42:33;;;;;;;61.22;33.70;;;8.70;99.90;;;;;;5008341;28;20161;-64
2023/04/23 05:45:20;;;;;;;64.97;33.67;;;8.90;99.90;;;;;;5009024;28;20045;-64
2023/04/23 05:48:00;;;;;;;60.38;33.90;;;8.90;99.90;;;;;;5003604;28;20145;-64
2023/04/23 05:50:48;;;;;;;63.63;31.58;;;9.00;99.90;;;;;;4988868;28;20391;-63
2023/04/23 05:53:27;;;;;;;59.60;33.47;;;9.00;99.90;;;;;;4971509;28;20133;-63
2023/04/23 05:56:14;;;;;;;62.65;33.78;;;9.00;99.90;;;;;;4989966;28;20505;-63
2023/04/23 05:58:53;;;;;;;60.67;30.80;;;9.60;99.90;;;;;;5001371;28;20160;-63
2023/04/23 06:01:40;;;;;;;61.75;34.13;;;10.10;99.90;;;;;;5009542;28;20065;-64
2023/04/23 06:04:22;;;;;;;56.85;31.52;;;10.40;99.90;;;;;;4996430;28;20359;-63
2023/04/23 06:07:09;;;;;;;56.35;33.10;;;11.00;99.90;;;;;;4990107;28;20061;-63
2023/04/23 06:09:48;;;;;;;53.90;31.73;;;11.40;99.90;;;;;;5008264;28;20117;-64
2023/04/23 06:13:09;;;;;;;50.67;30.98;;;12.10;99.90;;;;;;5009278;28;20050;-63
2023/04/23 06:15:49;;;;;;;54.42;31.35;;;12.60;99.90;;;;;;5009805;28;20050;-64
2023/04/23 06:18:36;;;;;;;49.63;32.30;;;13.00;99.90;;;;;;4999639;28;20057;-66
2023/04/23 06:21:16;;;;;;;48.55;32.47;;;13.30;99.90;;;;;;4989459;28;20090;-64
2023/04/23 06:24:04;;;;;;;48.30;28.90;;;13.40;99.90;;;;;;4989596;28;20073;-64
2023/04/23 06:26:43;;;;;;;43.80;27.73;;;13.60;99.90;;;;;;4990048;28;20368;-64
2023/04/23 06:29:30;;;;;;;45.83;29.33;;;13.80;99.90;;;;;;4989167;28;20057;-63
2023/04/23 06:32:10;;;;;;;42.30;28.35;;;14.00;99.90;;;;;;4995235;28;20280;-65
2023/04/23 06:34:57;;;;;;;41.97;28.52;;;14.10;99.90;;;;;;4996693;28;20064;-63
2023/04/23 06:37:36;;;;;;;43.25;28.85;;;14.20;99.90;;;;;;4993655;28;20725;-64
2023/04/23 06:40:23;;;;;;;39.10;25.85;;;14.30;99.90;;;;;;4997513;28;20061;-65
2023/04/23 06:43:04;;;;;;;41.17;27.48;;;14.60;99.90;;;;;;4997379;28;20084;-64
2023/04/23 06:45:50;;;;;;;39.78;26.02;;;14.50;99.90;;;;;;4985425;28;20390;-64
2023/04/23 06:48:31;;;;;;;40.08;28.13;;;14.50;99.90;;;;;;4988705;28;20469;-63
2023/04/23 06:51:17;;;;;;;38.95;27.20;;;14.60;99.90;;;;;;4969838;28;20066;-65
2023/04/23 06:53:57;;;;;;;36.67;25.67;;;14.80;99.90;;;;;;4968868;28;20062;-64
2023/04/23 06:56:43;;;;;;;36.10;26.17;;;14.70;99.90;;;;;;4968664;28;20042;-64
2023/04/23 06:59:22;;;;;;;39.53;25.77;;;14.60;99.90;;;;;;4985224;28;20148;-65
2023/04/23 07:02:09;;;;;;;35.95;26.52;;;14.70;99.90;;;;;;4989134;28;20058;-64
2023/04/23 07:04:48;;;;;;;38.58;26.30;;;14.70;99.90;;;;;;4988283;28;20142;-64
2023/04/23 07:07:36;;;;;;;32.97;23.98;;;14.80;99.90;;;;;;4988488;28;20066;-64
2023/04/23 07:10:17;;;;;;;34.88;26.80;;;14.80;99.90;;;;;;4983753;28;20055;-64
2023/04/23 07:13:04;;;;;;;36.00;25.73;;;14.80;99.90;;;;;;4968616;28;20061;-64
2023/04/23 07:15:43;;;;;;;37.45;26.38;;;14.90;99.90;;;;;;4970051;28;20138;-64
2023/04/23 07:18:31;;;;;;;36.97;26.45;;;14.80;99.90;;;;;;4977180;28;20533;-65
2023/04/23 07:21:10;;;;;;;36.03;24.67;;;14.80;99.90;;;;;;4987496;28;20081;-65
2023/04/23 07:24:05;;;;;;;37.03;25.63;;;14.90;99.90;;;;;;4988255;28;20057;-64
2023/04/23 07:26:45;;;;;;;34.03;23.63;;;14.60;99.90;;;;;;4988626;28;20162;-65
2023/04/23 07:30:03;;;;;;;34.08;23.45;;;14.40;99.90;;;;;;4988294;28;20062;-65
2023/04/23 07:32:43;;;;;;;32.22;22.65;;;14.40;99.90;;;;;;4988276;28;20134;-65
2023/04/23 07:35:30;;;;;;;32.95;24.13;;;14.50;99.90;;;;;;4988182;28;20042;-66
2023/04/23 07:38:09;;;;;;;35.70;23.20;;;14.40;99.90;;;;;;4988312;28;20379;-65
2023/04/23 07:40:56;;;;;;;32.38;22.60;;;14.40;99.90;;;;;;4988372;28;20065;-65
2023/04/23 07:43:35;;;;;;;35.50;24.83;;;14.50;99.90;;;;;;4988246;28;20088;-66
2023/04/23 07:46:23;;;;;;;33.83;23.30;;;14.50;99.90;;;;;;4988278;28;20054;-65
2023/04/23 07:49:02;;;;;;;31.25;23.17;;;14.40;99.90;;;;;;4989000;28;20138;-65
2023/04/23 07:51:49;;;;;;;30.08;20.95;;;14.50;99.90;;;;;;4969301;28;20173;-65
2023/04/23 07:54:29;;;;;;;27.85;20.58;;;14.60;99.90;;;;;;4968810;28;20481;-65
2023/04/23 07:57:15;;;;;;;28.75;20.48;;;14.60;99.90;;;;;;4951462;28;20050;-67
2023/04/23 07:59:55;;;;;;;29.40;20.20;;;14.70;99.90;;;;;;4985382;28;20085;-65
2023/04/23 08:02:41;;;;;;;27.23;19.17;;;14.70;99.90;;;;;;4988244;28;20129;-65
2023/04/23 08:05:21;;;;;;;29.80;20.50;;;14.60;99.90;;;;;;4987419;28;20072;-66
2023/04/23 08:08:09;;;;;;;28.70;20.42;;;14.70;99.90;;;;;;4987789;28;20427;-65
2023/04/23 08:10:50;;;;;;;25.75;18.60;;;14.90;99.90;;;;;;4988063;28;20130;-66
2023/04/23 08:14:10;;;;;;;26.25;19.73;;;15.00;99.90;;;;;;4987809;28;20060;-66
2023/04/23 08:16:49;;;;;;;27.48;18.20;;;15.20;99.90;;;;;;4987091;28;20053;-65
2023/04/23 08:19:42;;;;;;;26.85;19.20;;;15.10;99.90;;;;;;4986545;28;20402;-66
2023/04/23 08:22:29;;;;;;;27.20;19.40;;;15.30;99.90;;;;;;4968139;28;20636;-65
2023/04/23 08:25:09;;;;;;;25.75;18.27;;;15.40;99.90;;;;;;4951081;28;20054;-66
2023/04/23 08:28:28;;;;;;;25.67;18.23;;;15.40;99.90;;;;;;4971642;28;20070;-66
2023/04/23 08:31:08;;;;;;;23.80;16.23;;;15.60;99.90;;;;;;4987898;28;20387;-66
2023/04/23 08:33:55;;;;;;;19.77;14.63;;;15.60;99.90;;;;;;4970055;28;20042;-67
2023/04/23 08:36:36;;;;;;;24.75;16.33;;;15.90;99.90;;;;;;4987332;28;20554;-65
2023/04/23 08:39:25;;;;;;;20.45;15.30;;;16.00;99.90;;;;;;5001307;28;20061;-66
2023/04/23 08:42:20;;;;;;;20.13;14.05;;;16.10;99.90;;;;;;4989416;28;20488;-66
2023/04/23 08:45:07;;;;;;;17.75;13.15;;;16.20;99.90;;;;;;4992484;28;20119;-66
2023/04/23 08:47:49;;;;;;;18.10;13.25;;;16.20;99.90;;;;;;5005801;28;20140;-66
2023/04/23 08:50:37;;;;;;;18.77;13.90;;;16.30;99.90;;;;;;4970857;28;20687;-67
2023/04/23 08:53:17;;;;;;;17.45;12.35;;;16.40;99.90;;;;;;4987179;28;20092;-66
2023/04/23 08:56:05;;;;;;;18.33;12.23;;;16.50;99.90;;;;;;4987406;28;20406;-66
2023/04/23 08:58:46;;;;;;;17.10;12.30;;;16.50;99.90;;;;;;4995309;28;20603;-66
2023/04/23 09:01:32;;;;;;;17.08;10.98;;;16.40;99.90;;;;;;4989304;28;20045;-66
2023/04/23 09:04:15;;;;;;;18.10;12.52;;;16.40;99.90;;;;;;4989367;28;20046;-66
2023/04/23 09:07:23;;;;;;;15.80;11.55;;;16.10;99.90;;;;;;4987403;28;20140;-68
2023/04/23 09:10:11;;;;;;;15.82;10.57;;;16.10;99.90;;;;;;4966013;28;20490;-67
2023/04/23 09:12:50;;;;;;;16.95;12.70;;;16.30;99.90;;;;;;4967616;28;20055;-66
2023/04/23 09:15:38;;;;;;;14.48;11.05;;;16.50;99.90;;;;;;4968869;28;20062;-65
2023/04/23 09:18:50;;;;;;;18.98;11.82;;;16.60;99.90;;;;;;4964245;28;20501;-66
2023/04/23 09:21:36;;;;;;;14.93;10.95;;;16.80;99.90;;;;;;4997815;28;20073;-65
2023/04/23 09:24:37;;;;;;;13.90;10.50;;;16.80;99.90;;;;;;4990705;28;20468;-66
2023/04/23 09:27:25;;;;;;;14.73;11.10;;;16.70;99.90;;;;;;4991245;28;20057;-65
2023/04/23 09:30:09;;;;;;;16.98;11.40;;;16.70;99.90;;;;;;4988547;28;20323;-66
2023/04/23 09:32:55;;;;;;;14.70;11.50;;;16.90;99.90;;;;;;5009889;28;20049;-66
2023/04/23 09:35:35;;;;;;;15.13;12.82;;;17.20;99.90;;;;;;5008687;28;20100;-65
2023/04/23 09:38:21;;;;;;;14.43;11.27;;;17.30;99.90;;;;;;4995829;28;20129;-66
2023/04/23 09:41:02;;;;;;;16.83;12.10;;;17.30;99.90;;;;;;4992954;28;20062;-66
2023/04/23 09:43:48;;;;;;;12.55;10.05;;;17.40;99.90;;;;;;4995209;28;20116;-65
2023/04/23 09:46:43;;;;;;;14.02;11.70;;;17.40;99.90;;;;;;5010561;28;20347;-66
2023/04/23 09:49:29;;;;;;;13.48;10.63;;;17.60;99.90;;;;;;4995484;28;20060;-65
2023/04/23 09:52:12;;;;;;;13.95;10.93;;;17.80;99.90;;;;;;4989409;28;20078;-66
2023/04/23 09:55:04;;;;;;;13.55;9.85;;;17.70;99.90;;;;;;4990328;28;20458;-66
2023/04/23 09:57:51;;;;;;;14.05;9.77;;;17.80;99.90;;;;;;4991698;28;20125;-66
2023/04/23 10:00:38;;;;;;;13.52;9.25;;;17.80;99.90;;;;;;4977139;28;20046;-63
2023/04/23 10:03:18;;;;;;;12.32;8.82;;;17.90;99.90;;;;;;4989787;28;20145;-62
2023/04/23 10:06:04;;;;;;;13.05;9.02;;;18.00;99.90;;;;;;4989122;28;20061;-64
2023/04/23 10:08:44;;;;;;;12.35;9.05;;;18.20;99.90;;;;;;4997770;28;20463;-64
2023/04/23 10:11:30;;;;;;;11.57;8.00;;;18.10;99.90;;;;;;5009392;28;20377;-65
2023/04/23 10:14:10;;;;;;;10.57;7.90;;;17.90;99.90;;;;;;4992205;28;20045;-64
2023/04/23 10:16:59;;;;;;;9.75;6.80;;;17.70;99.90;;;;;;5009780;28;20069;-62
2023/04/23 10:19:41;;;;;;;8.30;6.60;;;17.60;99.90;;;;;;4995432;28;20050;-64
2023/04/23 10:22:36;;;;;;;7.55;6.03;;;17.80;99.90;;;;;;4934436;28;20051;-64
2023/04/23 10:25:24;;;;;;;7.38;6.13;;;17.80;99.90;;;;;;4935493;29;20480;-62
2023/04/23 10:28:06;;;;;;;8.23;5.82;;;17.70;99.90;;;;;;4950986;28;20047;-62
2023/04/23 10:30:53;;;;;;;8.13;6.07;;;17.60;99.90;;;;;;4968734;28;20061;-63
2023/04/23 10:33:36;;;;;;;8.13;5.50;;;17.90;99.90;;;;;;4969787;28;20133;-63
2023/04/23 10:36:24;;;;;;;8.90;6.20;;;18.10;99.90;;;;;;4969089;28;20101;-63
2023/04/23 10:39:07;;;;;;;8.57;6.45;;;18.30;99.90;;;;;;4969763;28;20420;-64
2023/04/23 10:41:54;;;;;;;8.02;5.55;;;18.30;99.90;;;;;;4969577;28;20136;-62
2023/04/23 10:44:45;;;;;;;7.25;5.43;;;18.30;99.90;;;;;;4970242;28;20150;-64
2023/04/23 10:47:31;;;;;;;8.85;5.88;;;18.30;99.90;;;;;;4970039;28;20070;-66
2023/04/23 10:50:34;;;;;;;7.45;5.43;;;18.50;99.90;;;;;;4969342;28;20516;-61
2023/04/23 10:53:20;;;;;;;6.10;5.22;;;18.50;99.90;;;;;;4968597;28;20364;-64
2023/04/23 10:56:12;;;;;;;9.20;6.05;;;18.50;99.90;;;;;;4969997;28;20130;-62
2023/04/23 10:58:58;;;;;;;8.18;5.95;;;18.40;99.90;;;;;;4973718;28;20474;-62
2023/04/23 11:01:38;;;;;;;7.72;5.88;;;18.20;99.90;;;;;;4968073;28;20080;-62
2023/04/23 11:04:27;;;;;;;8.77;5.18;;;18.00;99.90;;;;;;4969515;28;20081;-61
2023/04/23 11:07:15;;;;;;;9.30;4.95;;;17.80;99.90;;;;;;4968540;28;20137;-62
2023/04/23 11:10:12;;;;;;;7.80;5.40;;;18.00;99.90;;;;;;4965873;28;20054;-64
2023/04/23 11:12:52;;;;;;;5.35;4.18;;;18.10;99.90;;;;;;4969051;28;20546;-61
2023/04/23 11:15:41;;;;;;;7.13;4.75;;;18.20;99.90;;;;;;4968972;28;20051;-65
2023/04/23 11:18:21;;;;;;;8.40;4.47;;;18.30;99.90;;;;;;4969020;28;20054;-65
2023/04/23 11:21:14;;;;;;;10.82;5.35;;;18.20;99.90;;;;;;4962894;28;20104;-65
2023/04/23 11:24:01;;;;;;;18.55;6.47;;;18.30;99.90;;;;;;4985829;28;20069;-60
2023/04/23 11:26:43;;;;;;;5.82;3.17;;;18.40;99.90;;;;;;4988694;28;20117;-63
2023/04/23 11:29:29;;;;;;;5.05;3.25;;;18.50;99.90;;;;;;4986335;28;20068;-62
2023/04/23 11:32:09;;;;;;;6.50;2.92;;;18.50;99.90;;;;;;5007919;28;20125;-62
2023/04/23 11:34:59;;;;;;;5.60;2.30;;;18.70;99.90;;;;;;4989628;28;20056;-62
2023/04/23 11:37:39;;;;;;;5.95;1.95;;;18.70;99.90;;;;;;4972669;28;20046;-65
2023/04/23 11:40:29;;;;;;;3.60;1.70;;;18.80;99.90;;;;;;5003478;28;20046;-62
2023/04/23 11:43:09;;;;;;;4.55;1.88;;;19.20;99.90;;;;;;4968770;28;20060;-65
2023/04/23 11:45:56;;;;;;;5.32;1.98;;;19.10;99.90;;;;;;4953580;28;20050;-62
2023/04/23 11:48:35;;;;;;;3.03;1.55;;;19.10;99.90;;;;;;4993406;28;20145;-63
2023/04/23 11:51:25;;;;;;;5.68;2.20;;;18.90;99.90;;;;;;5007507;28;20053;-62
2023/04/23 11:54:09;;;;;;;5.28;1.95;;;18.90;99.90;;;;;;4990758;28;20057;-63
2023/04/23 11:56:56;;;;;;;5.00;1.77;;;18.80;99.90;;;;;;4980303;28;20117;-64
2023/04/23 11:59:36;;;;;;;5.50;1.77;;;18.70;99.90;;;;;;5001784;28;20088;-63
2023/04/23 12:02:23;;;;;;;5.47;1.75;;;18.70;99.90;;;;;;5006579;28;20045;-63
2023/04/23 12:05:03;;;;;;;8.00;2.40;;;18.50;99.60;;;;;;5007235;28;20073;-60
2023/04/23 12:07:50;;;;;;;5.85;1.88;;;18.50;99.90;;;;;;4998344;28;20072;-63
2023/04/23 12:10:30;;;;;;;3.75;2.08;;;18.70;99.90;;;;;;4985952;28;20130;-61
2023/04/23 12:13:21;;;;;;;3.50;1.92;;;18.80;99.90;;;;;;4966396;28;20066;-62
2023/04/23 12:16:06;;;;;;;4.63;1.70;;;18.90;99.90;;;;;;4987801;28;20441;-62
2023/04/23 12:18:52;;;;;;;5.60;1.98;;;19.00;99.90;;;;;;4995556;28;20107;-64
2023/04/23 12:21:33;;;;;;;6.70;2.17;;;19.00;99.90;;;;;;4983219;28;20347;-62
2023/04/23 12:24:19;;;;;;;5.60;1.98;;;19.10;99.90;;;;;;4973298;28;20093;-62
2023/04/23 12:27:01;;;;;;;4.47;1.65;;;19.10;99.50;;;;;;4951434;28;20058;-63
2023/04/23 12:29:49;;;;;;;6.22;1.77;;;19.10;99.90;;;;;;4968463;28;20088;-62
2023/04/23 12:32:30;;;;;;;4.82;2.10;;;19.40;99.80;;;;;;4967492;28;20122;-64
2023/04/23 12:35:16;;;;;;;3.50;1.55;;;19.40;99.20;;;;;;4952380;28;20057;-62
2023/04/23 12:38:03;;;;;;;4.97;2.10;;;19.50;99.40;;;;;;4964906;28;20491;-63
2023/04/23 12:40:50;;;;;;;4.57;1.92;;;19.40;98.90;;;;;;4949036;29;20047;-64
2023/04/23 12:43:31;;;;;;;4.25;2.05;;;19.50;97.70;;;;;;4948344;29;20126;-63
2023/04/23 12:46:17;;;;;;;4.28;1.80;;;19.60;98.90;;;;;;4955495;28;20169;-62
2023/04/23 12:48:57;;;;;;;6.40;1.60;;;19.50;98.50;;;;;;4963701;28;20047;-63
2023/04/23 12:51:43;;;;;;;5.43;1.95;;;19.60;99.30;;;;;;4964493;28;20263;-64
2023/04/23 12:54:23;;;;;;;4.25;1.83;;;19.60;98.90;;;;;;4965018;28;20083;-63
2023/04/23 12:57:13;;;;;;;4.93;1.70;;;19.70;97.70;;;;;;4966219;28;20126;-64
2023/04/23 12:59:53;;;;;;;4.28;2.10;;;19.80;97.20;;;;;;4966385;28;20086;-64
2023/04/23 13:02:39;;;;;;;4.65;1.80;;;19.80;98.30;;;;;;4965491;28;20522;-64
2023/04/23 13:05:19;;;;;;;5.47;2.00;;;19.90;98.50;;;;;;4967688;28;20062;-62
2023/04/23 13:08:05;;;;;;;5.90;1.85;;;19.80;98.20;;;;;;4965592;28;20038;-62
2023/04/23 13:10:45;;;;;;;5.93;1.77;;;20.00;98.10;;;;;;4964287;28;20254;-62
2023/04/23 13:13:31;;;;;;;4.30;1.48;;;19.90;98.40;;;;;;4960344;28;20146;-62
2023/04/23 13:16:11;;;;;;;4.90;1.80;;;19.80;98.10;;;;;;4967175;28;20129;-63
2023/04/23 13:18:59;;;;;;;6.80;1.75;;;19.70;97.60;;;;;;4963092;28;20055;-64
2023/04/23 13:21:38;;;;;;;4.50;1.48;;;19.60;97.50;;;;;;4947506;28;20457;-60
2023/04/23 13:24:24;;;;;;;3.45;1.50;;;19.60;97.90;;;;;;4965640;28;20101;-66
2023/04/23 13:27:04;;;;;;;5.18;1.42;;;19.60;97.10;;;;;;4967735;28;20134;-66
2023/04/23 13:29:50;;;;;;;3.53;1.55;;;19.50;97.20;;;;;;4981998;28;20521;-62
2023/04/23 13:32:31;;;;;;;6.50;2.45;;;19.40;98.00;;;;;;4986652;28;20477;-64
2023/04/23 13:35:18;;;;;;;4.03;1.95;;;19.40;97.90;;;;;;4986147;28;20069;-62
2023/04/23 13:37:57;;;;;;;7.72;2.65;;;19.40;97.80;;;;;;4969065;28;20082;-64
2023/04/23 13:40:43;;;;;;;6.53;2.00;;;19.60;98.40;;;;;;4965280;28;20054;-62
2023/04/23 13:43:23;;;;;;;5.72;2.03;;;19.60;97.20;;;;;;4967356;28;20101;-63
2023/04/23 13:46:09;;;;;;;5.60;2.00;;;19.90;98.20;;;;;;4966623;28;20070;-64
2023/04/23 13:48:49;;;;;;;5.45;2.42;;;19.80;97.40;;;;;;4968358;28;20086;-64
2023/04/23 13:51:35;;;;;;;4.07;1.75;;;19.90;97.40;;;;;;4966294;28;20296;-65
2023/04/23 13:54:15;;;;;;;4.93;1.80;;;20.00;97.10;;;;;;4966768;28;20134;-62
2023/04/23 13:57:01;;;;;;;2.65;1.30;;;20.10;97.10;;;;;;4966950;28;20379;-63
2023/04/23 13:59:42;;;;;;;5.05;1.80;;;20.10;97.10;;;;;;4980443;28;20153;-61
2023/04/23 14:02:28;;;;;;;4.30;2.13;;;20.20;97.70;;;;;;4957360;28;20073;-63
2023/04/23 14:05:08;;;;;;;2.88;1.48;;;20.10;97.30;;;;;;4989804;28;20145;-62
2023/04/23 14:07:55;;;;;;;4.78;1.80;;;19.90;97.50;;;;;;4990253;28;20077;-67
2023/04/23 14:10:34;;;;;;;4.72;2.20;;;19.80;97.40;;;;;;4963068;28;20082;-62
2023/04/23 14:13:21;;;;;;;6.00;2.50;;;19.80;98.00;;;;;;4970469;28;20054;-62